Time;durP1;ratioP1;P1;durP2;ratioP2;P2;SDS_P1;SDS_P2;PMS_P1;PMS_P2;Temp;Humidity;BMP_temperature;BMP_pressure;BME280_temperature;BME280_humidity;BME280_pressure;Samples;Min_cycle;Max_cycle;Signal;HPM_P1;HPM_P2
2023/09/07 00:00:49;;;;;;;6.37;4.20;;;22.80;99.90;;;;;;1963638;73;21104;-75
2023/09/07 00:03:40;;;;;;;8.35;4.42;;;22.80;99.90;;;;;;1963704;73;21059;-75
2023/09/07 00:06:34;;;;;;;4.03;3.45;;;22.80;99.90;;;;;;1963527;73;21113;-75
2023/09/07 00:09:26;;;;;;;5.65;3.77;;;22.80;99.90;;;;;;1963113;73;21133;-75
2023/09/07 00:12:18;;;;;;;4.10;3.72;;;22.80;99.90;;;;;;1963699;73;21113;-75
2023/09/07 00:15:12;;;;;;;4.50;3.90;;;22.80;99.90;;;;;;1963801;73;21082;-75
2023/09/07 00:18:03;;;;;;;5.42;3.75;;;22.80;99.90;;;;;;1963948;73;21105;-75
2023/09/07 00:20:55;;;;;;;4.67;4.20;;;22.90;99.90;;;;;;1963621;73;21109;-75
2023/09/07 00:23:49;;;;;;;4.60;3.72;;;22.90;99.90;;;;;;1963817;73;21175;-75
2023/09/07 00:26:40;;;;;;;5.35;3.55;;;22.80;99.90;;;;;;1963795;73;21151;-75
2023/09/07 00:29:32;;;;;;;5.00;3.70;;;22.80;99.90;;;;;;1963903;73;21054;-75
2023/09/07 00:32:23;;;;;;;6.97;3.58;;;22.70;99.90;;;;;;1963892;73;21090;-76
2023/09/07 00:35:15;;;;;;;6.90;3.70;;;22.70;99.90;;;;;;1963663;73;21098;-76
2023/09/07 00:38:06;;;;;;;4.03;3.62;;;22.60;99.90;;;;;;1963736;73;21054;-76
2023/09/07 00:40:57;;;;;;;5.78;4.03;;;22.60;99.90;;;;;;1963568;73;21151;-76
2023/09/07 00:43:49;;;;;;;4.97;3.47;;;22.60;99.90;;;;;;1963570;73;21146;-76
2023/09/07 00:46:40;;;;;;;4.20;3.80;;;22.50;99.90;;;;;;1957724;73;21592;-76
2023/09/07 00:49:32;;;;;;;4.47;3.80;;;22.50;99.90;;;;;;1956865;73;21404;-76
2023/09/07 00:52:24;;;;;;;5.53;3.67;;;22.50;99.90;;;;;;1956755;73;21134;-76
2023/09/07 00:55:16;;;;;;;4.55;3.75;;;22.50;99.90;;;;;;1957225;73;21163;-76
2023/09/07 00:58:08;;;;;;;4.47;3.70;;;22.50;99.90;;;;;;1957246;73;21150;-76
2023/09/07 01:01:00;;;;;;;5.08;3.87;;;22.50;99.90;;;;;;1957430;73;21172;-76
2023/09/07 01:03:52;;;;;;;4.40;3.83;;;22.40;99.90;;;;;;1957228;73;21113;-76
2023/09/07 01:09:29;;;;;;;4.20;3.70;;;22.50;99.90;;;;;;1957871;72;22198;-76
2023/09/07 01:12:20;;;;;;;5.00;3.80;;;22.40;99.90;;;;;;1917228;75;21122;-76
2023/09/07 01:15:12;;;;;;;7.40;4.20;;;22.40;99.90;;;;;;1917056;75;21715;-75
2023/09/07 01:18:05;;;;;;;4.53;3.92;;;22.40;99.90;;;;;;1917212;75;21238;-75
2023/09/07 01:20:59;;;;;;;6.47;4.03;;;22.40;99.90;;;;;;1916895;75;21127;-76
2023/09/07 01:23:51;;;;;;;5.30;4.17;;;22.40;99.90;;;;;;1916907;75;21207;-75
2023/09/07 01:26:43;;;;;;;5.12;3.60;;;22.40;99.90;;;;;;1917074;75;21664;-76
2023/09/07 01:29:37;;;;;;;4.72;3.72;;;22.30;99.90;;;;;;1917157;75;21167;-75
2023/09/07 01:32:28;;;;;;;5.70;3.77;;;22.30;99.90;;;;;;1917140;75;21188;-75
2023/09/07 01:35:21;;;;;;;4.15;3.25;;;22.20;99.90;;;;;;1917170;75;21127;-76
2023/09/07 01:38:12;;;;;;;7.30;3.55;;;22.20;99.90;;;;;;1916879;75;21067;-76
2023/09/07 01:41:04;;;;;;;4.20;3.45;;;22.10;99.90;;;;;;1917140;75;21103;-76
2023/09/07 01:43:56;;;;;;;5.95;3.72;;;22.20;99.90;;;;;;1917348;75;21164;-76
2023/09/07 01:46:48;;;;;;;5.55;3.62;;;22.10;99.90;;;;;;1917191;75;21201;-76
2023/09/07 01:49:40;;;;;;;4.83;3.67;;;22.20;99.90;;;;;;1916688;75;21110;-76
2023/09/07 01:52:32;;;;;;;6.42;3.80;;;22.10;99.90;;;;;;1917238;75;21157;-76
2023/09/07 01:55:23;;;;;;;4.12;3.72;;;22.10;99.90;;;;;;1917393;75;21639;-76
2023/09/07 01:58:14;;;;;;;5.85;4.00;;;22.00;99.90;;;;;;1917251;75;21105;-76
2023/09/07 02:01:05;;;;;;;5.10;4.60;;;22.10;99.90;;;;;;1917170;75;21098;-77
2023/09/07 02:03:57;;;;;;;4.30;3.90;;;22.10;99.90;;;;;;1917024;75;21088;-76
2023/09/07 02:06:48;;;;;;;4.87;4.37;;;22.20;99.90;;;;;;1916922;75;21090;-76
2023/09/07 02:09:40;;;;;;;5.47;4.22;;;22.30;99.90;;;;;;1924160;74;21162;-76
2023/09/07 02:12:31;;;;;;;5.45;4.30;;;22.40;99.90;;;;;;1925951;74;21178;-76
2023/09/07 02:15:23;;;;;;;4.83;4.25;;;22.40;99.90;;;;;;1926022;74;21097;-77
2023/09/07 02:18:14;;;;;;;4.72;4.28;;;22.20;99.90;;;;;;1926502;74;21106;-75
2023/09/07 02:21:06;;;;;;;5.15;4.67;;;22.10;99.90;;;;;;1926082;74;21043;-75
2023/09/07 02:23:58;;;;;;;5.42;4.20;;;22.10;99.90;;;;;;1926120;74;21075;-76
2023/09/07 02:26:50;;;;;;;4.95;4.33;;;22.00;99.90;;;;;;1926351;74;21200;-76
2023/09/07 02:29:42;;;;;;;4.78;4.37;;;22.00;99.90;;;;;;1926196;74;21098;-76
2023/09/07 02:32:34;;;;;;;5.22;4.40;;;22.00;99.90;;;;;;1926015;74;21151;-76
2023/09/07 02:35:25;;;;;;;4.87;4.37;;;22.10;99.90;;;;;;1926144;74;21160;-76
2023/09/07 02:38:17;;;;;;;6.58;4.70;;;22.10;99.90;;;;;;1926124;74;21144;-76
2023/09/07 02:41:08;;;;;;;5.03;4.40;;;22.10;99.90;;;;;;1926312;74;21200;-76
2023/09/07 02:44:00;;;;;;;4.87;4.37;;;22.00;99.90;;;;;;1926151;74;21098;-76
2023/09/07 02:46:52;;;;;;;8.75;4.37;;;22.00;99.90;;;;;;1926248;74;21122;-76
2023/09/07 02:49:44;;;;;;;5.05;4.30;;;22.00;99.90;;;;;;1925858;74;21172;-76
2023/09/07 02:52:35;;;;;;;5.50;4.80;;;22.00;99.90;;;;;;1926125;74;21589;-76
2023/09/07 02:55:29;;;;;;;5.50;4.20;;;21.90;99.90;;;;;;1926124;74;21094;-76
2023/09/07 02:58:20;;;;;;;5.87;4.45;;;22.00;99.90;;;;;;1926132;74;21098;-76
2023/09/07 03:01:14;;;;;;;4.80;4.40;;;22.00;99.90;;;;;;1926192;74;21083;-76
2023/09/07 03:04:07;;;;;;;4.75;4.28;;;22.00;99.90;;;;;;1926145;74;21097;-76
2023/09/07 03:07:01;;;;;;;4.75;4.35;;;22.00;99.90;;;;;;1926037;74;21191;-76
2023/09/07 03:09:54;;;;;;;5.33;4.15;;;22.00;99.90;;;;;;1917436;74;21225;-76
2023/09/07 03:12:46;;;;;;;4.83;4.35;;;21.90;99.90;;;;;;1904220;75;21160;-76
2023/09/07 03:15:37;;;;;;;5.47;4.53;;;22.00;99.90;;;;;;1904106;75;21123;-76
2023/09/07 03:18:31;;;;;;;5.87;4.45;;;22.00;99.90;;;;;;1904368;75;21193;-76
2023/09/07 03:21:29;;;;;;;4.80;4.30;;;21.80;99.90;;;;;;1904078;75;21056;-76
2023/09/07 03:24:18;;;;;;;4.97;4.45;;;21.80;99.90;;;;;;1904064;75;21091;-76
2023/09/07 03:27:11;;;;;;;5.08;4.58;;;21.80;99.90;;;;;;1903957;75;21098;-76
2023/09/07 03:30:03;;;;;;;4.97;4.28;;;21.80;99.90;;;;;;1916479;75;21050;-76
2023/09/07 03:32:55;;;;;;;4.85;4.37;;;21.80;99.90;;;;;;1916072;75;21173;-76
2023/09/07 03:35:47;;;;;;;5.15;4.05;;;21.70;99.90;;;;;;1883601;75;21112;-76
2023/09/07 03:38:38;;;;;;;5.00;4.50;;;21.70;99.90;;;;;;1870968;77;21155;-76
2023/09/07 03:41:30;;;;;;;5.95;4.67;;;21.60;99.90;;;;;;1871405;77;21199;-76
2023/09/07 03:44:22;;;;;;;6.00;4.47;;;21.50;99.90;;;;;;1871413;77;21593;-76
2023/09/07 03:47:15;;;;;;;4.80;4.40;;;21.60;99.90;;;;;;1871191;77;21192;-76
2023/09/07 03:50:07;;;;;;;5.75;4.45;;;21.60;99.90;;;;;;1870861;77;21627;-76
2023/09/07 03:52:59;;;;;;;5.47;4.70;;;21.50;99.90;;;;;;1871309;77;21220;-76
2023/09/07 03:55:50;;;;;;;5.65;4.75;;;21.40;99.90;;;;;;1871469;77;21163;-76
2023/09/07 03:58:44;;;;;;;5.42;4.92;;;21.40;99.90;;;;;;1871489;77;21114;-76
2023/09/07 04:01:35;;;;;;;5.05;4.58;;;21.30;99.90;;;;;;1871476;77;21090;-76
2023/09/07 04:04:27;;;;;;;5.83;5.33;;;21.30;99.90;;;;;;1871389;77;21065;-76
2023/09/07 04:07:19;;;;;;;5.45;4.85;;;21.20;99.90;;;;;;1871386;77;21125;-76
2023/09/07 04:10:11;;;;;;;6.92;5.08;;;21.20;99.90;;;;;;1871155;76;21313;-76
2023/09/07 04:13:02;;;;;;;6.20;5.22;;;21.10;99.90;;;;;;1871254;77;21157;-76
2023/09/07 04:15:54;;;;;;;5.58;5.08;;;21.10;99.90;;;;;;1871227;77;21180;-76
2023/09/07 04:18:45;;;;;;;5.78;5.17;;;21.10;99.90;;;;;;1871546;77;21606;-76
2023/09/07 04:21:38;;;;;;;5.45;4.65;;;21.10;99.90;;;;;;1871223;77;21124;-76
2023/09/07 04:24:30;;;;;;;5.17;4.65;;;21.00;99.90;;;;;;1871134;77;21654;-76
2023/09/07 04:27:22;;;;;;;6.80;5.03;;;20.90;99.90;;;;;;1871274;77;21196;-76
2023/09/07 04:30:14;;;;;;;7.25;5.03;;;20.90;99.90;;;;;;1871030;77;21133;-76
2023/09/07 04:33:06;;;;;;;6.22;4.87;;;20.90;99.90;;;;;;1871241;77;21116;-76
2023/09/07 04:36:01;;;;;;;6.47;4.75;;;20.80;99.90;;;;;;1939711;73;21134;-76
2023/09/07 04:38:53;;;;;;;5.28;4.78;;;20.80;99.90;;;;;;1957154;73;21116;-76
2023/09/07 04:41:44;;;;;;;5.85;5.15;;;20.70;99.90;;;;;;1957218;73;21090;-76
2023/09/07 04:44:36;;;;;;;5.58;5.08;;;20.70;99.90;;;;;;1957511;73;21097;-76
2023/09/07 04:47:27;;;;;;;6.70;5.20;;;20.60;99.90;;;;;;1957096;73;21511;-75
2023/09/07 04:50:19;;;;;;;7.10;5.33;;;20.50;99.90;;;;;;1956957;73;21082;-76
2023/09/07 04:53:10;;;;;;;7.60;5.00;;;20.50;99.90;;;;;;1956909;73;21090;-76
2023/09/07 04:56:04;;;;;;;5.80;5.20;;;20.40;99.90;;;;;;1956994;73;21114;-76
2023/09/07 04:58:55;;;;;;;5.83;5.20;;;20.40;99.90;;;;;;1957101;73;21110;-76
2023/09/07 05:01:47;;;;;;;10.32;5.50;;;20.40;99.90;;;;;;1957078;73;21109;-76
2023/09/07 05:04:38;;;;;;;10.43;5.60;;;20.40;99.90;;;;;;1956952;73;21094;-76
2023/09/07 05:07:30;;;;;;;8.08;4.87;;;20.30;99.90;;;;;;1957148;73;21455;-76
2023/09/07 05:10:21;;;;;;;7.42;5.40;;;20.20;99.90;;;;;;1956918;73;21058;-76
2023/09/07 05:13:14;;;;;;;7.92;5.00;;;20.10;99.90;;;;;;1963973;73;21188;-76
2023/09/07 05:16:06;;;;;;;14.95;5.60;;;20.10;99.90;;;;;;1963433;73;21156;-76
2023/09/07 05:18:58;;;;;;;7.47;5.25;;;20.00;99.90;;;;;;1963998;73;21046;-76
2023/09/07 05:21:50;;;;;;;9.75;5.17;;;20.00;99.90;;;;;;1963643;73;21114;-76
2023/09/07 05:24:45;;;;;;;8.20;5.00;;;20.00;99.90;;;;;;1963340;73;21094;-76
2023/09/07 05:27:37;;;;;;;6.80;5.00;;;20.00;99.90;;;;;;1963408;73;21093;-76
2023/09/07 05:30:31;;;;;;;7.97;5.67;;;19.90;99.90;;;;;;1963348;73;21134;-76
2023/09/07 05:33:23;;;;;;;6.97;5.42;;;19.90;99.90;;;;;;1963574;73;21442;-76
2023/09/07 05:36:15;;;;;;;7.45;5.15;;;19.90;99.90;;;;;;1963029;73;21102;-76
2023/09/07 05:39:07;;;;;;;10.45;5.30;;;20.00;99.90;;;;;;1963173;73;21069;-76
2023/09/07 05:41:58;;;;;;;12.30;5.35;;;20.10;99.90;;;;;;1963325;73;21166;-76
2023/09/07 05:44:49;;;;;;;8.45;5.17;;;20.10;99.90;;;;;;1963439;73;21098;-77
2023/09/07 05:47:43;;;;;;;10.45;5.47;;;20.20;99.90;;;;;;1963458;73;21121;-76
2023/09/07 05:50:36;;;;;;;16.35;6.45;;;20.10;99.90;;;;;;1963216;73;21082;-76
2023/09/07 05:53:28;;;;;;;10.23;5.05;;;20.20;99.90;;;;;;1963382;73;21101;-76
2023/09/07 05:56:20;;;;;;;9.70;5.30;;;20.20;99.90;;;;;;1963337;73;21166;-76
2023/09/07 05:59:14;;;;;;;13.38;5.80;;;20.10;99.90;;;;;;1963294;73;21089;-77
2023/09/07 06:02:06;;;;;;;15.13;5.30;;;20.00;99.90;;;;;;1963077;73;21095;-76
2023/09/07 06:04:58;;;;;;;14.43;5.78;;;20.00;99.90;;;;;;1962791;73;21101;-76
2023/09/07 06:07:49;;;;;;;11.12;5.37;;;20.10;99.90;;;;;;1891889;76;21097;-76
2023/09/07 06:10:43;;;;;;;11.43;5.50;;;20.20;99.90;;;;;;1892252;76;21122;-76
2023/09/07 06:13:34;;;;;;;9.50;5.45;;;20.20;99.90;;;;;;1897243;75;21187;-76
2023/09/07 06:16:26;;;;;;;13.98;6.00;;;20.20;99.90;;;;;;1898966;75;21545;-76
2023/09/07 06:19:18;;;;;;;11.25;5.70;;;20.30;99.90;;;;;;1898590;75;21171;-76
2023/09/07 06:22:09;;;;;;;11.40;6.33;;;20.30;99.90;;;;;;1899091;75;21140;-76
2023/09/07 06:25:01;;;;;;;10.25;5.78;;;20.30;99.90;;;;;;1898919;75;21098;-76
2023/09/07 06:27:54;;;;;;;7.22;5.42;;;20.40;99.90;;;;;;1899031;75;21147;-75
2023/09/07 06:30:46;;;;;;;11.15;5.72;;;20.40;99.90;;;;;;1899240;75;21156;-76
2023/09/07 06:33:38;;;;;;;8.58;5.42;;;20.60;99.90;;;;;;1899139;75;21116;-76
2023/09/07 06:36:30;;;;;;;10.13;6.30;;;20.60;99.90;;;;;;1899064;75;21109;-76
2023/09/07 06:39:24;;;;;;;6.78;5.92;;;20.70;99.90;;;;;;1899317;75;21614;-76
2023/09/07 06:42:16;;;;;;;7.75;6.00;;;20.90;99.90;;;;;;1899409;75;21175;-76
2023/09/07 06:45:11;;;;;;;7.92;6.05;;;21.00;99.90;;;;;;1899520;75;21244;-76
2023/09/07 06:48:02;;;;;;;9.58;6.17;;;21.10;99.90;;;;;;1898878;75;21101;-76
2023/09/07 06:50:54;;;;;;;10.13;5.58;;;21.20;99.90;;;;;;1898905;75;21113;-76
2023/09/07 06:53:47;;;;;;;14.05;5.92;;;21.30;99.90;;;;;;1898914;75;21351;-76
2023/09/07 06:56:40;;;;;;;6.80;5.72;;;21.40;99.90;;;;;;1899042;75;21196;-75
2023/09/07 06:59:32;;;;;;;8.68;6.12;;;21.50;99.90;;;;;;1898816;75;21058;-75
2023/09/07 07:02:23;;;;;;;7.83;5.55;;;21.60;99.90;;;;;;1898620;75;21106;-76
2023/09/07 07:05:15;;;;;;;7.72;5.80;;;21.60;99.90;;;;;;1898480;75;21193;-76
2023/09/07 07:08:07;;;;;;;8.38;6.30;;;21.70;99.90;;;;;;1898758;75;21466;-76
2023/09/07 07:10:59;;;;;;;12.37;6.28;;;21.80;99.90;;;;;;1898752;75;21178;-76
2023/09/07 07:13:50;;;;;;;9.65;6.33;;;21.90;99.90;;;;;;1891210;75;21884;-76
2023/09/07 07:16:42;;;;;;;11.10;6.80;;;22.00;99.90;;;;;;1882730;76;21092;-76
2023/09/07 07:19:34;;;;;;;7.55;5.92;;;21.90;99.90;;;;;;1882649;76;21102;-76
2023/09/07 07:22:27;;;;;;;8.90;6.45;;;21.90;99.90;;;;;;1883275;76;21120;-76
2023/09/07 07:25:19;;;;;;;7.97;6.40;;;21.90;99.90;;;;;;1883101;76;21216;-76
2023/09/07 07:28:24;;;;;;;8.05;6.45;;;21.90;99.90;;;;;;1882123;76;21151;-76
2023/09/07 07:31:50;;;;;;;7.55;6.10;;;21.90;99.90;;;;;;1881841;76;21545;-76
2023/09/07 07:38:41;;;;;;;8.85;6.55;;;22.00;99.90;;;;;;1957800;72;22262;-77
2023/09/07 07:41:38;;;;;;;9.68;6.45;;;22.00;99.90;;;;;;1936897;73;21117;-76
2023/09/07 07:44:40;;;;;;;15.72;6.33;;;22.10;99.90;;;;;;1935363;73;21199;-76
2023/09/07 07:47:40;;;;;;;7.35;5.92;;;22.10;99.90;;;;;;1934963;73;21163;-76
2023/09/07 07:50:39;;;;;;;7.97;6.40;;;22.10;99.90;;;;;;1937280;73;21589;-76
2023/09/07 07:53:42;;;;;;;9.18;5.95;;;22.20;99.90;;;;;;1920947;73;21078;-75
2023/09/07 07:56:58;;;;;;;10.65;6.45;;;22.20;99.90;;;;;;1924773;73;21070;-75
2023/09/07 07:59:54;;;;;;;6.83;5.30;;;22.20;99.90;;;;;;1918420;73;21157;-75
2023/09/07 08:02:57;;;;;;;8.65;5.85;;;22.10;99.90;;;;;;1937550;73;21180;-77
2023/09/07 08:05:49;;;;;;;7.85;6.00;;;22.10;99.90;;;;;;1928661;73;21901;-76
2023/09/07 08:08:51;;;;;;;10.15;5.53;;;22.10;99.90;;;;;;1902521;73;21110;-76
2023/09/07 08:11:50;;;;;;;9.63;5.85;;;22.20;99.90;;;;;;1898385;74;21097;-76
2023/09/07 08:14:44;;;;;;;10.50;5.87;;;22.30;99.90;;;;;;1931291;73;21070;-76
2023/09/07 08:17:42;;;;;;;7.47;5.80;;;22.30;99.90;;;;;;1918243;73;21211;-76
2023/09/07 08:20:56;;;;;;;8.83;6.35;;;22.30;99.90;;;;;;1936331;73;21105;-77
2023/09/07 08:23:47;;;;;;;7.15;5.50;;;22.40;99.90;;;;;;1927762;73;21205;-76
2023/09/07 08:26:41;;;;;;;10.65;5.85;;;22.60;99.90;;;;;;1931983;73;21141;-76
2023/09/07 08:29:39;;;;;;;6.05;5.17;;;22.60;99.90;;;;;;1937295;73;21179;-76
2023/09/07 08:32:32;;;;;;;6.53;5.87;;;22.70;99.90;;;;;;1938049;73;21090;-76
2023/09/07 08:35:27;;;;;;;8.95;6.40;;;22.80;99.90;;;;;;1926130;73;21238;-76
2023/09/07 08:38:37;;;;;;;8.48;5.87;;;22.80;99.90;;;;;;1910129;74;21059;-76
2023/09/07 08:41:31;;;;;;;9.00;5.67;;;22.90;99.90;;;;;;1910555;73;21104;-76
2023/09/07 08:44:58;;;;;;;8.93;5.72;;;23.00;99.90;;;;;;1907740;74;21143;-76
2023/09/07 08:47:54;;;;;;;7.03;6.00;;;23.10;99.90;;;;;;1909918;74;21059;-76
2023/09/07 08:50:52;;;;;;;7.37;5.67;;;23.10;99.90;;;;;;1907554;74;21216;-76
2023/09/07 08:53:49;;;;;;;10.30;6.85;;;23.30;99.90;;;;;;1910888;74;21193;-76
2023/09/07 08:56:41;;;;;;;8.15;5.37;;;23.40;99.90;;;;;;1910696;74;21111;-76
2023/09/07 08:59:36;;;;;;;7.67;5.97;;;23.50;99.90;;;;;;1906272;74;21192;-76
2023/09/07 09:02:27;;;;;;;8.43;6.00;;;23.60;99.90;;;;;;1901436;74;21106;-76
2023/09/07 09:05:21;;;;;;;8.00;6.25;;;23.60;99.90;;;;;;1911642;74;21136;-76
2023/09/07 09:08:14;;;;;;;10.18;6.00;;;23.60;99.90;;;;;;1875987;75;21145;-76
2023/09/07 09:11:05;;;;;;;8.68;6.42;;;23.70;99.90;;;;;;1878545;75;21262;-76
2023/09/07 09:13:56;;;;;;;8.23;5.58;;;23.80;99.90;;;;;;1881879;75;21234;-76
2023/09/07 09:16:51;;;;;;;8.03;6.08;;;23.90;99.90;;;;;;1892336;75;21490;-76
2023/09/07 09:19:43;;;;;;;11.35;6.00;;;23.90;99.90;;;;;;1892478;75;21153;-77
2023/09/07 09:22:34;;;;;;;8.05;5.75;;;24.00;99.90;;;;;;1883470;75;21204;-77
2023/09/07 09:25:26;;;;;;;6.87;6.03;;;24.00;99.90;;;;;;1871237;75;21138;-76
2023/09/07 09:28:17;;;;;;;16.65;5.83;;;24.00;99.90;;;;;;1889726;75;21180;-77
2023/09/07 09:31:12;;;;;;;7.15;5.55;;;24.10;99.90;;;;;;1873402;75;21126;-77
2023/09/07 09:34:02;;;;;;;8.63;5.35;;;24.10;99.90;;;;;;1877156;75;21074;-76
2023/09/07 09:36:54;;;;;;;7.50;5.47;;;24.20;99.90;;;;;;1879533;75;21102;-77
2023/09/07 09:39:47;;;;;;;8.18;5.80;;;24.30;99.90;;;;;;1871005;75;21203;-77
2023/09/07 09:42:39;;;;;;;6.58;5.90;;;24.40;99.90;;;;;;1884664;75;21516;-77
2023/09/07 09:45:31;;;;;;;7.65;5.47;;;24.50;99.90;;;;;;1884622;75;21209;-77
2023/09/07 09:48:23;;;;;;;6.00;5.42;;;24.50;99.90;;;;;;1876808;75;21103;-76
2023/09/07 09:51:17;;;;;;;9.85;5.80;;;24.50;99.90;;;;;;1871116;75;21121;-77
2023/09/07 09:54:11;;;;;;;6.42;5.58;;;24.60;99.90;;;;;;1873897;75;21071;-77
2023/09/07 10:00:25;;;;;;;6.67;5.40;;;24.80;99.90;;;;;;1974763;72;22214;-78
2023/09/07 10:03:16;;;;;;;6.15;5.53;;;24.90;99.90;;;;;;1950294;73;21132;-78
2023/09/07 10:06:11;;;;;;;6.87;6.12;;;25.00;99.90;;;;;;1939440;73;21079;-77
2023/09/07 10:09:06;;;;;;;7.28;5.85;;;25.00;99.90;;;;;;1916775;75;21164;-76
2023/09/07 10:12:00;;;;;;;6.37;5.65;;;25.10;99.90;;;;;;1916916;75;21544;-76
2023/09/07 10:18:08;;;;;;;6.47;5.85;;;25.30;99.90;;;;;;1916426;75;21093;-76
2023/09/07 10:21:02;;;;;;;6.47;5.78;;;25.40;99.90;;;;;;1916395;75;22118;-76
2023/09/07 10:23:54;;;;;;;5.53;5.00;;;25.50;99.90;;;;;;1916651;75;21063;-77
2023/09/07 10:26:47;;;;;;;8.50;5.33;;;25.70;99.90;;;;;;1916589;75;21180;-76
2023/09/07 10:29:46;;;;;;;6.37;5.08;;;25.80;99.90;;;;;;1916216;75;21058;-76
2023/09/07 10:32:41;;;;;;;6.92;5.15;;;25.80;99.90;;;;;;1916477;75;21102;-76
2023/09/07 10:35:37;;;;;;;5.60;4.90;;;25.70;99.90;;;;;;1916878;75;21154;-76
2023/09/07 10:38:29;;;;;;;5.53;4.85;;;25.80;99.90;;;;;;1916584;75;21165;-76
2023/09/07 10:41:21;;;;;;;5.17;4.67;;;25.90;99.90;;;;;;1916648;75;21110;-76
2023/09/07 10:44:13;;;;;;;5.60;4.47;;;26.00;99.90;;;;;;1916392;75;21127;-77
2023/09/07 10:47:07;;;;;;;5.83;4.60;;;26.20;99.90;;;;;;1916425;75;21169;-76
2023/09/07 10:49:59;;;;;;;6.33;4.55;;;26.20;99.90;;;;;;1916244;75;21121;-76
2023/09/07 10:52:50;;;;;;;4.90;4.40;;;26.20;99.90;;;;;;1916777;75;21091;-76
2023/09/07 10:55:43;;;;;;;6.00;4.17;;;26.40;99.90;;;;;;1916891;75;21145;-76
2023/09/07 10:58:38;;;;;;;4.80;4.00;;;26.50;99.90;;;;;;1916647;75;21532;-77
2023/09/07 11:01:32;;;;;;;4.60;4.22;;;26.60;99.90;;;;;;1916781;75;21130;-76
2023/09/07 11:04:23;;;;;;;5.10;3.90;;;26.50;99.90;;;;;;1916797;75;21117;-77
2023/09/07 11:07:17;;;;;;;4.78;3.67;;;26.60;99.90;;;;;;1916968;75;21192;-76
2023/09/07 11:10:12;;;;;;;5.92;3.33;;;26.70;99.90;;;;;;1916626;75;21059;-76
2023/09/07 11:13:07;;;;;;;4.25;3.33;;;26.90;99.90;;;;;;1915966;75;21149;-77
2023/09/07 11:16:00;;;;;;;3.62;3.17;;;27.00;99.90;;;;;;1916103;75;21059;-76
2023/09/07 11:18:53;;;;;;;3.30;2.85;;;27.10;99.90;;;;;;1915955;75;21150;-76
2023/09/07 11:21:45;;;;;;;4.08;3.35;;;27.20;99.90;;;;;;1915974;75;21570;-76
2023/09/07 11:24:37;;;;;;;3.22;2.92;;;27.40;99.90;;;;;;1915864;75;21102;-76
2023/09/07 11:27:32;;;;;;;3.90;2.80;;;27.50;99.90;;;;;;1915670;75;21109;-76
2023/09/07 11:30:24;;;;;;;4.15;3.08;;;27.50;99.90;;;;;;1915795;75;21632;-76
2023/09/07 11:33:16;;;;;;;3.80;2.75;;;27.60;99.90;;;;;;1915645;75;21183;-77
2023/09/07 11:36:08;;;;;;;6.28;2.65;;;27.80;99.90;;;;;;1915528;75;21131;-77
2023/09/07 11:39:00;;;;;;;4.45;2.85;;;27.90;99.90;;;;;;1915859;75;21111;-76
2023/09/07 11:41:51;;;;;;;4.92;2.90;;;28.00;99.90;;;;;;1916276;75;21154;-77
2023/09/07 11:44:43;;;;;;;5.20;2.70;;;28.10;99.90;;;;;;1915923;75;21129;-76
2023/09/07 11:47:35;;;;;;;6.92;2.80;;;28.20;99.90;;;;;;1915959;75;21167;-76
2023/09/07 11:50:29;;;;;;;5.08;3.08;;;28.30;99.90;;;;;;1915963;75;21099;-76
2023/09/07 11:53:20;;;;;;;4.92;2.95;;;28.30;99.90;;;;;;1916007;75;21108;-77
2023/09/07 11:56:11;;;;;;;3.00;2.50;;;28.50;99.90;;;;;;1916005;75;21103;-77
2023/09/07 11:59:03;;;;;;;3.92;2.55;;;28.50;99.90;;;;;;1916157;75;21213;-76
2023/09/07 12:01:54;;;;;;;3.27;2.98;;;28.60;99.90;;;;;;1884383;74;21647;-76
2023/09/07 12:04:45;;;;;;;4.42;3.02;;;28.60;99.90;;;;;;1880147;76;21081;-76
2023/09/07 12:07:37;;;;;;;5.47;2.77;;;28.70;99.90;;;;;;1879984;76;21101;-76
2023/09/07 12:10:29;;;;;;;2.77;2.52;;;28.80;99.90;;;;;;1880067;76;21109;-76
2023/09/07 12:13:24;;;;;;;3.33;2.67;;;28.80;99.90;;;;;;1880216;76;21536;-76
2023/09/07 12:16:16;;;;;;;4.78;2.40;;;28.70;99.90;;;;;;1880213;76;21174;-76
2023/09/07 12:19:07;;;;;;;5.08;2.62;;;28.70;99.90;;;;;;1880025;76;21186;-76
2023/09/07 12:21:58;;;;;;;3.12;2.40;;;28.90;99.90;;;;;;1880147;76;21140;-76
2023/09/07 12:24:50;;;;;;;4.28;2.65;;;29.00;99.90;;;;;;1880200;76;21361;-76
2023/09/07 12:27:46;;;;;;;2.40;2.00;;;29.10;99.90;;;;;;1880339;76;21227;-77
2023/09/07 12:30:39;;;;;;;3.60;2.67;;;29.20;99.90;;;;;;1879974;76;21077;-76
2023/09/07 12:33:32;;;;;;;5.17;2.70;;;29.10;99.90;;;;;;1880184;76;21173;-76
2023/09/07 12:36:28;;;;;;;2.95;2.55;;;29.10;99.90;;;;;;1880241;76;21061;-76
2023/09/07 12:39:17;;;;;;;5.83;2.65;;;29.30;99.90;;;;;;1880020;76;21120;-76
2023/09/07 12:42:09;;;;;;;5.87;3.05;;;29.20;99.90;;;;;;1880273;76;21128;-77
2023/09/07 12:45:00;;;;;;;2.80;2.60;;;29.30;99.90;;;;;;1880223;76;21112;-76
2023/09/07 12:47:52;;;;;;;2.92;2.40;;;29.40;99.90;;;;;;1880141;76;21158;-76
2023/09/07 12:50:43;;;;;;;4.30;2.70;;;29.50;99.90;;;;;;1880053;76;21548;-76
2023/09/07 12:53:35;;;;;;;4.37;2.50;;;29.60;99.90;;;;;;1880136;76;21179;-76
2023/09/07 12:56:27;;;;;;;3.47;2.62;;;29.60;99.30;;;;;;1880303;76;21561;-76
2023/09/07 12:59:18;;;;;;;3.17;2.22;;;29.60;99.40;;;;;;1880316;76;21074;-77
2023/09/07 13:02:10;;;;;;;3.15;2.20;;;29.60;98.90;;;;;;1880264;74;21177;-77
2023/09/07 13:05:05;;;;;;;3.00;2.15;;;29.60;97.90;;;;;;1880001;76;21137;-77
2023/09/07 13:07:56;;;;;;;2.35;2.15;;;29.60;97.30;;;;;;1880035;76;21184;-77
2023/09/07 13:10:47;;;;;;;2.87;2.17;;;29.70;97.70;;;;;;1880160;76;21219;-76
2023/09/07 13:13:39;;;;;;;3.72;2.50;;;29.70;97.70;;;;;;1880138;76;21085;-77
2023/09/07 13:16:33;;;;;;;4.05;2.33;;;29.80;98.30;;;;;;1880070;76;21139;-76
2023/09/07 13:19:25;;;;;;;2.37;2.17;;;30.00;96.60;;;;;;1879985;76;21101;-76
2023/09/07 13:22:18;;;;;;;3.47;2.25;;;30.00;96.20;;;;;;1880236;76;21101;-76
2023/09/07 13:25:10;;;;;;;2.05;1.95;;;30.00;95.10;;;;;;1880053;76;21074;-76
2023/09/07 13:28:01;;;;;;;3.08;2.37;;;30.10;95.10;;;;;;1880086;76;21195;-76
2023/09/07 13:30:53;;;;;;;2.45;2.20;;;30.20;94.90;;;;;;1880204;76;21296;-76
2023/09/07 13:33:47;;;;;;;2.58;2.37;;;30.20;95.20;;;;;;1879919;76;21156;-78
2023/09/07 13:36:38;;;;;;;4.50;2.22;;;30.30;95.00;;;;;;1889640;76;21091;-78
2023/09/07 13:39:29;;;;;;;2.00;1.87;;;30.20;94.60;;;;;;1889766;76;21544;-77
2023/09/07 13:42:21;;;;;;;2.95;2.40;;;30.20;94.70;;;;;;1889693;76;21104;-77
2023/09/07 13:45:13;;;;;;;2.95;2.35;;;30.30;94.90;;;;;;1889704;76;21194;-77
2023/09/07 13:48:05;;;;;;;2.40;2.20;;;30.30;94.00;;;;;;1889831;76;21139;-77
2023/09/07 13:50:57;;;;;;;3.45;2.42;;;30.40;94.00;;;;;;1845012;78;21134;-77
2023/09/07 13:53:49;;;;;;;3.02;2.47;;;30.40;93.80;;;;;;1880474;76;21659;-77
2023/09/07 13:56:42;;;;;;;3.08;2.20;;;30.40;94.10;;;;;;1879852;76;21167;-76
2023/09/07 13:59:36;;;;;;;3.45;2.40;;;30.40;93.80;;;;;;1844350;78;21114;-77
2023/09/07 14:02:27;;;;;;;2.92;2.27;;;30.50;93.10;;;;;;1888286;75;21385;-77
2023/09/07 14:05:19;;;;;;;4.70;2.10;;;30.60;93.30;;;;;;1901370;75;21144;-77
2023/09/07 14:08:10;;;;;;;3.17;2.40;;;30.70;92.70;;;;;;1901309;75;21203;-77
2023/09/07 14:11:01;;;;;;;3.22;2.33;;;31.30;92.20;;;;;;1901337;75;21164;-77
2023/09/07 14:13:54;;;;;;;4.80;2.47;;;31.90;90.20;;;;;;1901133;75;21180;-77
2023/09/07 14:16:46;;;;;;;3.35;2.20;;;32.40;90.10;;;;;;1901314;75;21187;-78
2023/09/07 14:19:37;;;;;;;3.87;2.45;;;32.90;89.50;;;;;;1901149;75;21098;-78
2023/09/07 14:22:29;;;;;;;4.25;2.70;;;33.10;86.70;;;;;;1901521;75;21569;-78
2023/09/07 14:25:21;;;;;;;3.85;2.20;;;33.00;84.30;;;;;;1901340;75;21126;-78
2023/09/07 14:28:13;;;;;;;4.15;2.10;;;33.30;83.20;;;;;;1901309;75;21110;-77
2023/09/07 14:31:07;;;;;;;4.25;2.08;;;33.50;82.40;;;;;;1901507;75;21151;-78
2023/09/07 14:33:59;;;;;;;6.28;2.20;;;33.50;80.70;;;;;;1901103;75;21048;-78
2023/09/07 14:36:50;;;;;;;2.58;2.15;;;33.60;80.10;;;;;;1901347;75;21099;-78
2023/09/07 14:39:47;;;;;;;2.95;2.25;;;33.70;79.90;;;;;;1901350;75;21106;-78
2023/09/07 14:42:36;;;;;;;2.95;2.20;;;34.20;77.30;;;;;;1901544;75;21118;-77
2023/09/07 14:45:27;;;;;;;2.55;2.35;;;34.50;77.00;;;;;;1901643;75;21196;-77
2023/09/07 14:48:26;;;;;;;3.85;2.40;;;34.50;75.40;;;;;;1901715;75;21104;-77
2023/09/07 14:51:19;;;;;;;4.53;2.42;;;34.50;75.90;;;;;;1901485;75;21110;-77
2023/09/07 14:54:11;;;;;;;3.83;2.20;;;34.60;74.40;;;;;;1901466;75;21121;-77
2023/09/07 14:57:05;;;;;;;2.55;2.35;;;34.80;73.10;;;;;;1901419;75;21109;-77
2023/09/07 14:59:57;;;;;;;3.00;2.40;;;34.80;73.20;;;;;;1901740;75;21606;-79
2023/09/07 15:02:48;;;;;;;2.83;2.40;;;34.80;71.90;;;;;;1901372;75;21114;-76
2023/09/07 15:05:40;;;;;;;3.27;2.60;;;35.00;71.30;;;;;;1903502;75;21155;-77
2023/09/07 15:08:32;;;;;;;4.78;2.20;;;35.10;70.70;;;;;;1903516;75;21147;-77
2023/09/07 15:11:24;;;;;;;2.60;2.35;;;35.00;70.50;;;;;;1903581;75;21118;-78